createdAt,value
2023-05-14T00:03:16.039Z,100101.42
2023-05-14T00:08:19.098Z,100099.54
2023-05-14T00:13:22.038Z,100102.96
2023-05-14T00:18:25.089Z,100104.07
2023-05-14T00:23:28.581Z,100103.38
2023-05-14T00:28:31.532Z,100093.34
2023-05-14T00:33:35.195Z,100093.21
2023-05-14T00:38:38.133Z,100093.36
2023-05-14T00:43:41.189Z,100087.70
2023-05-14T00:48:45.075Z,100083.41
2023-05-14T00:53:48.965Z,100082.13
2023-05-14T00:58:51.872Z,100086.23
2023-05-14T01:03:57.976Z,100082.39
2023-05-14T01:09:25.134Z,100081.17
2023-05-14T01:14:59.851Z,100078.40
2023-05-14T01:20:03.103Z,100079.95
2023-05-14T01:25:07.197Z,100074.55
2023-05-14T01:30:26.370Z,100074.03
2023-05-14T01:35:31.350Z,100076.17
2023-05-14T01:40:36.343Z,100075.89
2023-05-14T01:45:39.332Z,100078.44
2023-05-14T01:50:42.450Z,100077.21
2023-05-14T01:55:45.445Z,100072.15
2023-05-14T02:00:48.361Z,100073.95
2023-05-14T02:05:51.372Z,100073.85
2023-05-14T02:10:54.278Z,100070.07
2023-05-14T02:15:57.227Z,100066.77
2023-05-14T02:21:00.265Z,100064.16
2023-05-14T02:26:03.254Z,100062.11
2023-05-14T02:31:06.398Z,100066.17
2023-05-14T02:36:09.364Z,100063.81
2023-05-14T02:41:12.320Z,100063.04
2023-05-14T02:46:15.362Z,100064.94
2023-05-14T02:51:21.351Z,100065.34
2023-05-14T02:56:24.313Z,100070.80
2023-05-14T03:01:27.352Z,100066.74
2023-05-14T03:06:31.542Z,100063.98
2023-05-14T03:11:34.548Z,100060.83
2023-05-14T03:16:37.595Z,100054.36
2023-05-14T03:21:40.684Z,100051.34
2023-05-14T03:26:43.616Z,100053.02
2023-05-14T03:31:46.590Z,100052.82
2023-05-14T03:36:50.735Z,100054.77
2023-05-14T03:41:53.780Z,100048.05
2023-05-14T03:46:56.725Z,100046.61
2023-05-14T03:51:59.632Z,100049.19
2023-05-14T03:57:05.755Z,100048.92
2023-05-14T04:02:08.693Z,100045.62
2023-05-14T04:07:11.716Z,100043.23
2023-05-14T04:12:14.663Z,100044.65
2023-05-14T04:17:17.704Z,100047.83
2023-05-14T04:22:20.656Z,100048.48
2023-05-14T04:27:23.796Z,100054.36
2023-05-14T04:32:27.280Z,100045.48
2023-05-14T04:37:31.190Z,100047.44
2023-05-14T04:42:34.321Z,100051.16
2023-05-14T04:47:37.302Z,100054.13
2023-05-14T04:52:40.307Z,100057.67
2023-05-14T04:57:43.334Z,100052.10
2023-05-14T05:02:46.340Z,100043.09
2023-05-14T05:07:49.252Z,100036.33
2023-05-14T05:12:52.195Z,100040.64
2023-05-14T05:17:55.237Z,100037.08
2023-05-14T05:22:58.228Z,100032.52
2023-05-14T05:28:01.249Z,100027.67
2023-05-14T05:33:05.051Z,100022.21
2023-05-14T05:38:08.092Z,100020.21
2023-05-14T05:43:11.088Z,100019.02
2023-05-14T05:48:14.131Z,100020.84
2023-05-14T05:53:17.015Z,100019.77
2023-05-14T05:58:19.864Z,100018.40
2023-05-14T06:03:23.393Z,100011.73
2023-05-14T06:08:26.389Z,100009.35
2023-05-14T06:13:29.298Z,100015.61
2023-05-14T06:18:32.250Z,100016.45
2023-05-14T06:23:35.169Z,100025.14
2023-05-14T06:28:38.090Z,100026.66
2023-05-14T06:33:41.058Z,100026.27
2023-05-14T06:38:43.942Z,100025.77
2023-05-14T06:43:46.862Z,100023.48
2023-05-14T06:48:49.851Z,100022.45
2023-05-14T06:53:54.316Z,100016.92
2023-05-14T06:58:57.244Z,100008.90
2023-05-14T07:04:00.814Z,100005.33
2023-05-14T07:09:03.990Z,100003.11
2023-05-14T07:14:06.878Z,100002.98
2023-05-14T07:19:09.922Z,99996.41
2023-05-14T07:24:12.775Z,99994.92
2023-05-14T07:29:15.858Z,99996.20
2023-05-14T07:34:19.503Z,99997.83
2023-05-14T07:39:22.475Z,99995.73
2023-05-14T07:44:25.400Z,99994.62
2023-05-14T07:49:28.358Z,99984.66
2023-05-14T07:54:31.146Z,99980.23
2023-05-14T07:59:34.085Z,99974.27
2023-05-14T08:04:37.279Z,99975.23
2023-05-14T08:09:40.671Z,99969.67
2023-05-14T08:14:43.630Z,99968.13
2023-05-14T08:19:46.993Z,99966.71
2023-05-14T08:24:52.953Z,99968.27
2023-05-14T08:29:55.850Z,99970.95
2023-05-14T08:34:58.834Z,99964.23
2023-05-14T08:40:05.088Z,99957.96
2023-05-14T08:45:16.804Z,99958.13
2023-05-14T08:50:22.572Z,99955.40
2023-05-14T08:55:28.277Z,99953.48
2023-05-14T09:00:31.253Z,99952.70
2023-05-14T09:05:34.217Z,99950.06
2023-05-14T09:10:36.997Z,99945.33
2023-05-14T09:15:41.430Z,99944.85
2023-05-14T09:20:47.380Z,99937.13
2023-05-14T09:25:50.327Z,99933.23
2023-05-14T09:30:53.256Z,99939.69
2023-05-14T09:35:59.798Z,99939.14
2023-05-14T09:41:03.152Z,99927.83
2023-05-14T09:46:06.035Z,99926.67
2023-05-14T09:51:11.667Z,99933.64
2023-05-14T09:56:14.916Z,99922.88
2023-05-14T10:01:20.748Z,99898.33
2023-05-14T10:06:32.528Z,99886.34
2023-05-14T10:11:39.070Z,99886.02
2023-05-14T10:16:49.086Z,99865.68
2023-05-14T10:22:05.623Z,99854.73
2023-05-14T10:27:08.962Z,99856.15
2023-05-14T10:32:14.966Z,99849.54
2023-05-14T10:37:22.056Z,99839.83
2023-05-14T10:42:43.432Z,99839.36
2023-05-14T10:47:48.031Z,99831.20
2023-05-14T10:52:51.691Z,99826.05
2023-05-14T10:57:54.693Z,99820.41
2023-05-14T11:02:57.825Z,99814.48
2023-05-14T11:08:04.063Z,99813.85
2023-05-14T11:13:07.105Z,99809.15
2023-05-14T11:18:10.730Z,99801.00
2023-05-14T11:23:16.317Z,99793.80
2023-05-14T11:28:22.263Z,99784.63
2023-05-14T11:33:27.892Z,99784.85
2023-05-14T11:38:30.834Z,99774.08
2023-05-14T11:43:36.647Z,99769.45
2023-05-14T11:48:39.756Z,99762.54
2023-05-14T11:53:45.948Z,99751.40
2023-05-14T11:58:50.508Z,99751.67
2023-05-14T12:03:53.587Z,99746.42
2023-05-14T12:08:57.251Z,99740.20
2023-05-14T12:14:03.099Z,99742.70
2023-05-14T12:19:06.124Z,99733.98
2023-05-14T12:24:18.117Z,99725.92
2023-05-14T12:29:22.170Z,99719.78
2023-05-14T12:34:25.090Z,99711.15
2023-05-14T12:39:28.175Z,99704.59
2023-05-14T12:44:31.357Z,99700.90
2023-05-14T12:49:34.411Z,99698.05
2023-05-14T12:54:42.775Z,99689.33
2023-05-14T12:59:45.906Z,99688.72
2023-05-14T13:04:48.689Z,99676.12
2023-05-14T13:09:51.644Z,99657.75
2023-05-14T13:14:54.414Z,99664.33
2023-05-14T13:19:57.345Z,99660.48
2023-05-14T13:25:00.335Z,99655.56
2023-05-14T13:30:04.519Z,99646.15
2023-05-14T13:35:08.009Z,99644.54
2023-05-14T13:40:11.693Z,99629.08
2023-05-14T13:45:14.651Z,99621.66
2023-05-14T13:50:17.640Z,99616.43
2023-05-14T13:55:20.743Z,99611.95
2023-05-14T14:00:23.823Z,99603.15
2023-05-14T14:05:28.572Z,99592.84
2023-05-14T14:10:34.721Z,99593.52
2023-05-14T14:15:37.766Z,99584.80
2023-05-14T14:20:43.451Z,99583.34
2023-05-14T14:25:46.412Z,99577.88
2023-05-14T14:30:50.590Z,99575.76
2023-05-14T14:35:53.560Z,99577.44
2023-05-14T14:40:57.204Z,99568.94
2023-05-14T14:46:00.796Z,99572.68
2023-05-14T14:51:04.663Z,99567.44
2023-05-14T14:56:07.675Z,99573.43
2023-05-14T15:01:13.513Z,99575.39
2023-05-14T15:06:16.496Z,99559.33
2023-05-14T15:11:19.288Z,99542.10
2023-05-14T15:16:22.283Z,99540.15
2023-05-14T15:21:25.530Z,99533.67
2023-05-14T15:26:28.384Z,99531.36
2023-05-14T15:31:31.770Z,99524.98
2023-05-14T15:36:35.632Z,99527.57
2023-05-14T15:41:38.863Z,99517.92
2023-05-14T15:46:41.769Z,99512.73
2023-05-14T15:51:45.201Z,99502.58
2023-05-14T15:56:48.895Z,99495.25
2023-05-14T16:01:53.336Z,99496.05
2023-05-14T16:07:03.259Z,99483.90
2023-05-14T16:12:07.333Z,99471.65
2023-05-14T16:17:10.289Z,99469.74
2023-05-14T16:22:13.030Z,99466.05
2023-05-14T16:27:18.519Z,99459.35
2023-05-14T16:32:22.861Z,99447.63
2023-05-14T16:37:25.790Z,99446.45
2023-05-14T16:42:28.699Z,99448.27
2023-05-14T16:47:31.530Z,99447.24
2023-05-14T16:52:34.736Z,99446.60
2023-05-14T16:57:37.514Z,99447.64
2023-05-14T17:02:40.619Z,99446.13
2023-05-14T17:07:43.661Z,99439.41
2023-05-14T17:12:46.618Z,99435.64
2023-05-14T17:17:48.509Z,99428.89
2023-05-14T17:22:51.392Z,99421.95
2023-05-14T17:27:54.290Z,99419.57
2023-05-14T17:32:57.301Z,99414.08
2023-05-14T17:38:00.709Z,99414.83
2023-05-14T17:43:03.699Z,99408.77
2023-05-14T17:48:08.951Z,99400.50
2023-05-14T17:53:11.904Z,99408.74
2023-05-14T17:58:16.417Z,99410.45
2023-05-14T18:03:20.542Z,99410.38
2023-05-14T18:08:23.586Z,99409.88
2023-05-14T18:13:27.094Z,99404.44
2023-05-14T18:18:31.051Z,99405.98
2023-05-14T18:23:34.027Z,99397.83
2023-05-14T18:28:37.346Z,99395.66
2023-05-14T18:33:40.240Z,99398.34
2023-05-14T18:38:43.281Z,99394.48
2023-05-14T18:43:46.277Z,99403.27
2023-05-14T18:48:49.937Z,99399.09
2023-05-14T18:53:53.112Z,99395.98
2023-05-14T18:58:58.161Z,99394.23
2023-05-14T19:04:03.094Z,99386.79
2023-05-14T19:09:07.694Z,99383.09
2023-05-14T19:14:11.467Z,99381.87
2023-05-14T19:19:14.545Z,99378.92
2023-05-14T19:24:17.638Z,99381.02
2023-05-14T19:29:20.594Z,99377.70
2023-05-14T19:34:23.537Z,99383.75
2023-05-14T19:39:26.527Z,99381.84
2023-05-14T19:44:29.551Z,99380.61
2023-05-14T19:49:32.475Z,99380.75
2023-05-14T19:54:38.424Z,99377.09
2023-05-14T19:59:41.523Z,99376.87
2023-05-14T20:04:46.116Z,99371.06
2023-05-14T20:09:49.259Z,99365.35
2023-05-14T20:14:54.880Z,99359.13
2023-05-14T20:19:58.218Z,99347.59
2023-05-14T20:25:01.251Z,99335.04
2023-05-14T20:30:05.523Z,99331.95
2023-05-14T20:35:08.743Z,99323.39
2023-05-14T20:40:14.777Z,99316.66
2023-05-14T20:45:18.048Z,99315.36
2023-05-14T20:50:21.717Z,99314.52
2023-05-14T20:55:24.859Z,99313.81
2023-05-14T21:00:27.800Z,99309.94
2023-05-14T21:05:31.169Z,99308.61
2023-05-14T21:10:34.208Z,99307.92
2023-05-14T21:15:37.386Z,99299.61
2023-05-14T21:20:40.545Z,99299.25
2023-05-14T21:25:44.286Z,99293.54
2023-05-14T21:30:47.252Z,99295.51
2023-05-14T21:35:50.409Z,99291.85
2023-05-14T21:40:53.331Z,99279.55
2023-05-14T21:45:56.634Z,99277.66
2023-05-14T21:50:59.456Z,99272.67
2023-05-14T21:56:02.251Z,99271.52
2023-05-14T22:01:05.161Z,99265.61
2023-05-14T22:06:07.997Z,99262.05
2023-05-14T22:11:10.991Z,99256.71
2023-05-14T22:16:14.378Z,99250.66
2023-05-14T22:21:17.413Z,99242.50
2023-05-14T22:26:21.769Z,99235.91
2023-05-14T22:31:24.917Z,99232.14
2023-05-14T22:36:27.940Z,99224.59
2023-05-14T22:41:30.918Z,99220.58
2023-05-14T22:46:33.951Z,99210.72
2023-05-14T22:51:36.860Z,99203.97
2023-05-14T22:56:39.872Z,99200.80
2023-05-14T23:01:42.883Z,99200.05
2023-05-14T23:06:45.960Z,99201.66
2023-05-14T23:11:48.930Z,99194.66
2023-05-14T23:16:51.899Z,99196.92
2023-05-14T23:21:54.815Z,99190.88
2023-05-14T23:26:57.789Z,99192.04
2023-05-14T23:32:00.807Z,99190.64
2023-05-14T23:37:03.858Z,99189.22
2023-05-14T23:42:06.964Z,99183.98
2023-05-14T23:47:10.322Z,99179.21
2023-05-14T23:52:13.244Z,99178.95
2023-05-14T23:57:16.221Z,99175.78
